Flight Track Log - Related Links

Times and Time Zones

All times are in EDT time to prevent confusion due to time zone crossing. See the FLG3432 flight status page for this flight to view local times or setup timezone preferences in your user account.

Time Position Orientation Groundspeed Altitude Reporting Facility
EDT Latitude Longitude Course Direction KTS MPH feet Rate Location/Type
Thu 22:33:08 40.8217 -111.9797 163° South 191 220 5,100  Level Salt Lake Center
Thu 22:34:33 40.9033 -111.9889 355° North 223 257 6,800 1,271 Climbing Salt Lake Center
Thu 22:35:06 40.9447 -111.9942 354° North 250 288 7,600 1,723 Climbing Salt Lake Center
Thu 22:36:00 41.1333 -111.8344 90° East  Level FlightAware Approximate
Thu 22:36:07 41.0203 -111.9839 North 267 307 9,500  Level Salt Lake Center
Thu 22:37:00 41.0626 -111.7414 163° South  Level FlightAware Approximate
Thu 22:37:09 41.0881 -111.9400 26° Northeast 291 335 11,300  Level Salt Lake Center
Thu 22:38:00 40.9565 -111.6976 163° South  Level FlightAware Approximate
Thu 22:38:10 41.0542 -111.8578 119° Southeast 276 318 13,200  Level Salt Lake Center
Thu 22:39:12 40.9917 -111.8094 150° Southeast 286 329 14,000 726 Climbing Salt Lake Center
Thu 22:40:14 40.9050 -111.7417 149° Southeast 348 400 14,700 1,122 Climbing Salt Lake Center
Thu 22:41:15 40.8156 -111.6722 150° Southeast 361 415 16,300 1,512 Climbing Salt Lake Center
Thu 22:42:17 40.7561 -111.5578 124° Southeast 381 438 17,800 1,268 Climbing Salt Lake Center
Thu 22:43:18 40.7133 -111.4214 112° Southeast 394 453 18,900 1,268 Climbing Salt Lake Center
Thu 22:44:20 40.6683 -111.2786 113° Southeast 419 482 20,400 1,317 Climbing Salt Lake Center
Thu 22:45:21 40.6375 -111.1211 104° East 436 502 21,600 1,220 Climbing Salt Lake Center
Thu 22:46:23 40.6250 -110.9606 96° East 433 498 22,900 1,161 Climbing Salt Lake Center
Thu 22:47:25 40.6044 -110.7972 99° East 436 502 24,000 1,024 Climbing Salt Lake Center
Thu 22:48:26 40.5672 -110.6731 112° Southeast 440 506 25,000 1,073 Climbing Salt Lake Center
Thu 22:49:28 40.5075 -110.4981 114° Southeast 390 449 26,200 976 Climbing Salt Lake Center
Thu 22:50:29 40.4611 -110.3519 113° Southeast 436 502 27,000 878 Climbing Salt Lake Center
Thu 22:51:31 40.3939 -110.1867 118° Southeast 454 522 28,000 968 Climbing Salt Lake Center
Thu 22:52:33 40.3164 -110.0597 129° Southeast 460 529 29,000 1,122 Climbing Salt Lake Center
Thu 22:53:34 40.2258 -109.9103 128° Southeast 467 537 30,300 1,366 Climbing Salt Lake Center
Thu 22:54:36 40.1514 -109.7864 128° Southeast 459 528 31,800 1,220 Climbing Salt Lake Center
Thu 22:55:37 40.0783 -109.6644 128° Southeast 448 516 32,800 585 Climbing Salt Lake Center
Thu 22:56:39 39.9933 -109.5219 128° Southeast 448 516 33,000 97 Climbing Salt Lake Center
Thu 22:57:41 39.9186 -109.3894 126° Southeast 467 537 33,000  Level Salt Lake Center
Thu 22:58:42 39.8344 -109.2339 125° Southeast 469 540 33,000  Level Salt Lake Center
Thu 22:59:44 39.7633 -109.1031 125° Southeast 463 533 33,000 195 Level Salt Lake Center
Thu 23:00:45 39.6817 -108.9542 125° Southeast 457 526 33,400 585 Climbing Salt Lake Center
Thu 23:01:47 39.6119 -108.8361 127° Southeast 464 534 34,200 927 Climbing Salt Lake Center
Thu 23:02:48 39.5333 -108.6850 124° Southeast 457 526 35,300 829 Climbing Salt Lake Center
Thu 23:03:50 39.4658 -108.5614 125° Southeast 444 511 35,900 634 Climbing Salt Lake Center
Thu 23:04:51 39.3867 -108.4181 126° Southeast 439 505 36,600 537 Climbing Salt Lake Center
Thu 23:05:53 39.3186 -108.2961 126° Southeast 438 504 37,000 160 Climbing Salt Lake Center
Thu 23:07:21 39.2156 -108.1089 125° Southeast 447 514 37,000  Level Denver Center
Thu 23:08:23 39.1336 -107.9656 126° Southeast 445 512 37,000  Level Denver Center
Thu 23:09:24 39.0642 -107.8444 126° Southeast 441 507 37,000  Level Denver Center
Thu 23:10:26 38.9833 -107.7025 126° Southeast 440 506 37,000  Level Denver Center
Thu 23:11:28 38.9122 -107.5786 126° Southeast 447 514 37,000  Level Denver Center
Thu 23:12:30 38.8408 -107.4525 126° Southeast 454 522 37,000  Level Denver Center
Thu 23:13:31 38.7581 -107.3097 127° Southeast 447 514 37,000  Level Denver Center
Thu 23:14:33 38.6889 -107.1897 126° Southeast 439 505 37,000  Level Denver Center
Thu 23:15:47 38.6008 -107.0389 127° Southeast 443 510 37,000  Level Denver Center
Thu 23:16:49 38.5275 -106.9136 127° Southeast 443 510 37,000  Level Denver Center
Thu 23:17:50 38.4539 -106.7858 126° Southeast 446 513 37,000  Level Denver Center
Thu 23:18:52 38.3653 -106.6356 127° Southeast 446 513 37,000  Level Denver Center
Thu 23:19:54 38.2886 -106.5042 127° Southeast 447 514 37,000  Level Denver Center
Thu 23:20:55 38.2181 -106.3847 127° Southeast 442 509 37,000  Level Denver Center
Thu 23:21:57 38.1444 -106.2628 127° Southeast 435 501 37,000  Level Denver Center
Thu 23:22:59 38.0500 -106.1475 136° Southeast 433 498 37,000  Level Denver Center
Thu 23:24:00 37.9650 -106.0450 136° Southeast 438 504 37,000  Level Denver Center
Thu 23:25:02 37.8628 -105.9311 139° Southeast 439 505 37,000  Level Denver Center
Thu 23:26:04 37.7706 -105.8375 141° Southeast 442 509 37,000  Level Denver Center
Thu 23:27:05 37.6614 -105.7308 142° Southeast 444 511 37,000  Level Denver Center
Thu 23:28:07 37.5683 -105.6419 143° Southeast 439 505 37,000  Level Denver Center
Thu 23:29:08 37.4642 -105.5611 148° Southeast 437 503 37,000  Level Denver Center
Thu 23:30:10 37.3464 -105.4736 149° Southeast 434 499 37,000  Level Denver Center
Thu 23:31:12 37.2536 -105.4028 149° Southeast 431 496 37,000  Level Denver Center
Thu 23:32:13 37.1397 -105.3186 149° Southeast 427 491 37,000  Level Denver Center
Thu 23:33:15 37.0411 -105.2425 148° Southeast 433 498 37,000  Level Denver Center
Thu 23:34:16 36.9311 -105.1603 149° Southeast 442 509 37,000  Level Denver Center
Thu 23:35:13 36.8258 -105.0689 145° Southeast 443 510 37,000  Level Albuquerque Center
Thu 23:36:14 36.7336 -104.9836 143° Southeast 436 502 37,000  Level Albuquerque Center
Thu 23:37:15 36.6356 -104.8953 144° Southeast 432 497 37,000  Level Albuquerque Center
Thu 23:38:17 36.5358 -104.8053 144° Southeast 436 502 37,000  Level Albuquerque Center
Thu 23:39:18 36.4358 -104.7144 144° Southeast 439 505 37,000  Level Albuquerque Center
Thu 23:40:20 36.3358 -104.6233 144° Southeast 440 506 37,000  Level Albuquerque Center
Thu 23:41:21 36.2344 -104.5333 144° Southeast 443 510 37,000  Level Albuquerque Center
Thu 23:42:23 36.1333 -104.4425 144° Southeast 445 512 37,000  Level Albuquerque Center
Thu 23:43:24 36.0147 -104.3353 144° Southeast 447 514 37,000  Level Albuquerque Center
Thu 23:44:25 35.9125 -104.2444 144° Southeast 448 516 37,000  Level Albuquerque Center
Thu 23:46:28 35.7094 -104.0628 144° Southeast 444 511 37,000  Level Albuquerque Center
Thu 23:47:30 35.6086 -103.9731 144° Southeast 442 509 37,000  Level Albuquerque Center
Thu 23:48:31 35.5092 -103.8844 144° Southeast 436 502 37,000  Level Albuquerque Center
Thu 23:49:32 35.4075 -103.7956 145° Southeast 439 505 37,000  Level Albuquerque Center
Thu 23:50:34 35.3053 -103.7067 145° Southeast 442 509 37,000  Level Albuquerque Center
Thu 23:51:35 35.2078 -103.6089 141° Southeast 450 518 37,000  Level Albuquerque Center
Thu 23:52:36 35.1497 -103.4742 118° Southeast 449 517 37,000  Level Albuquerque Center
Thu 23:53:38 35.1139 -103.3314 107° East 439 505 37,000  Level Albuquerque Center
Thu 23:54:39 35.0769 -103.1911 108° East 433 498 37,000  Level Albuquerque Center
Thu 23:55:40 35.0392 -103.0514 108° East 431 496 37,000  Level Albuquerque Center
Thu 23:56:42 35.0019 -102.9106 108° East 433 498 37,000  Level Albuquerque Center
Thu 23:57:43 34.9650 -102.7678 107° East 436 502 37,000  Level Albuquerque Center
Thu 23:58:44 34.9253 -102.6178 108° East 435 501 37,000  Level Albuquerque Center
Thu 23:59:46 34.8875 -102.4781 108° East 436 502 37,000  Level Albuquerque Center
Fri 00:00:47 34.8500 -102.3389 108° East 436 502 37,000  Level Albuquerque Center
Fri 00:01:49 34.8128 -102.1992 108° East 436 502 37,000  Level Albuquerque Center
Fri 00:02:49 34.7742 -102.0600 109° East 437 503 37,000  Level Albuquerque Center
Fri 00:03:51 34.7289 -101.8919 108° East 439 505 37,000  Level Albuquerque Center
Fri 00:04:52 34.6919 -101.7586 109° East 426 490 37,000  Level Albuquerque Center
Fri 00:05:53 34.6572 -101.6281 108° East 414 476 37,000  Level Albuquerque Center
Fri 00:06:54 34.6211 -101.4950 108° East 416 479 37,000  Level Albuquerque Center
Fri 00:07:56 34.5833 -101.3608 109° East 420 483 37,000  Level Albuquerque Center
Fri 00:08:57 34.5461 -101.2272 109° East 420 483 37,000  Level Albuquerque Center
Fri 00:09:58 34.5094 -101.0944 108° East 419 482 37,000  Level Albuquerque Center
Fri 00:10:59 34.4725 -100.9631 109° East 417 480 37,000  Level Albuquerque Center
Fri 00:12:00 34.4281 -100.8047 109° East 415 478 37,000  Level Albuquerque Center
Fri 00:13:02 34.3897 -100.6733 109° East 415 478 37,000 -466 Level Albuquerque Center
Fri 00:13:43 34.3686 -100.5961 108° East 415 478 36,200 -1,663 Descending Fort Worth Center
Fri 00:14:43 34.3322 -100.4642 108° East 415 478 34,200 -1,600 Descending Fort Worth Center
Fri 00:15:43 34.2917 -100.3244 109° East 421 484 33,000 -600 Descending Fort Worth Center
Fri 00:16:43 34.2511 -100.1847 109° East 434 499 33,000  Level Fort Worth Center
Fri 00:17:43 34.2083 -100.0403 110° East 439 505 33,000  Level Fort Worth Center
Fri 00:18:43 34.1675 -99.8961 109° East 449 517 33,000  Level Fort Worth Center
Fri 00:19:43 34.1242 -99.7517 110° East 449 517 33,000  Level Fort Worth Center
Fri 00:20:43 34.0831 -99.6078 109° East 449 517 33,000 -100 Level Fort Worth Center
Fri 00:21:43 34.0397 -99.4661 110° East 456 525 32,800 -600 Descending Fort Worth Center
Fri 00:22:43 33.9981 -99.3250 110° East 450 518 31,800 -1,000 Descending Fort Worth Center
Fri 00:23:43 33.9542 -99.1814 110° East 450 518 30,800 -1,000 Descending Fort Worth Center
Fri 00:24:43 33.9103 -99.0453 111° Southeast 450 518 29,800 -1,000 Descending Fort Worth Center
Fri 00:25:43 33.8617 -98.9092 113° Southeast 445 512 28,800 -1,200 Descending Fort Worth Center
Fri 00:26:43 33.8050 -98.7583 114° Southeast 439 505 27,400 -1,650 Descending Fort Worth Center
Fri 00:27:43 33.7542 -98.6200 114° Southeast 444 511 25,500 -1,750 Descending Fort Worth Center
Fri 00:28:43 33.7136 -98.5122 114° Southeast 444 511 23,900 -2,050 Descending Fort Worth Center
Fri 00:29:43 33.6542 -98.3617 115° Southeast 444 511 21,400 -2,550 Descending Fort Worth Center
Fri 00:30:43 33.6031 -98.2167 113° Southeast 435 501 18,800 -2,250 Descending Fort Worth Center
Fri 00:31:43 33.5536 -98.0914 115° Southeast 415 478 16,900 -1,900 Descending Fort Worth Center
Fri 00:32:43 33.5106 -97.9789 115° Southeast 408 470 15,000 -2,000 Descending Fort Worth Center
Fri 00:33:43 33.4608 -97.8492 115° Southeast 397 457 12,900 -1,950 Descending Fort Worth Center
Fri 00:34:43 33.4194 -97.7419 115° Southeast 397 457 11,100 -950 Descending Fort Worth Center
Fri 00:35:43 33.3697 -97.6175 116° Southeast 380 437 11,000 -400 Descending Fort Worth Center
Fri 00:36:43 33.3156 -97.5278 126° Southeast 349 402 10,300 -800 Descending Fort Worth Center
Fri 00:37:43 33.2717 -97.4508 124° Southeast 316 364 9,400 -1,100 Descending Fort Worth Center
Fri 00:38:43 33.2217 -97.3639 124° Southeast 299 344 8,100 -1,350 Descending Fort Worth Center
Fri 00:39:43 33.1756 -97.2819 124° Southeast 299 344 6,700 -1,500 Descending Fort Worth Center
Fri 00:40:43 33.1422 -97.1925 114° Southeast 286 329 5,100 -1,350 Descending Fort Worth Center
Fri 00:41:43 33.1147 -97.1108 112° Southeast 276 318 4,000 -1,050 Descending Fort Worth Center
Fri 00:42:43 33.0708 -97.0639 138° Southeast 224 258 3,000 -600 Descending Fort Worth Center
Fri 00:43:43 33.0333 -97.0517 165° South 187 215 2,800 -500 Descending Fort Worth Center
Fri 00:44:43 32.9894 -97.0494 178° South 161 185 2,000 -750 Descending Fort Worth Center
Fri 00:45:43 32.9519 -97.0519 183° South 149 171 1,300 -700 Descending Fort Worth Center

Login

Don't have an account? Register now (free) for customized features, flight alerts, and more!